createdAt,value
2018-10-19T00:02:01.469Z,7.53
2018-10-19T00:04:29.967Z,7.73
2018-10-19T00:06:58.435Z,8.33
2018-10-19T00:09:26.909Z,8.33
2018-10-19T00:11:55.387Z,8.13
2018-10-19T00:14:23.862Z,7.90
2018-10-19T00:16:52.594Z,9.30
2018-10-19T00:19:21.076Z,7.90
2018-10-19T00:21:49.605Z,8.77
2018-10-19T00:24:18.090Z,9.13
2018-10-19T00:26:46.567Z,8.80
2018-10-19T00:29:15.149Z,8.50
2018-10-19T00:31:43.663Z,8.40
2018-10-19T00:34:12.147Z,8.80
2018-10-19T00:36:40.669Z,8.57
2018-10-19T00:39:10.775Z,8.60
2018-10-19T00:41:39.254Z,8.60
2018-10-19T00:44:07.944Z,8.37
2018-10-19T00:46:36.463Z,8.43
2018-10-19T00:49:05.179Z,9.20
2018-10-19T00:51:33.657Z,7.40
2018-10-19T00:54:02.131Z,8.93
2018-10-19T00:56:30.598Z,8.30
2018-10-19T00:58:59.127Z,8.60
2018-10-19T01:01:27.619Z,9.10
2018-10-19T01:03:56.100Z,9.50
2018-10-19T01:06:24.567Z,9.50
2018-10-19T01:08:53.063Z,9.07
2018-10-19T01:11:21.563Z,8.93
2018-10-19T01:13:50.029Z,8.93
2018-10-19T01:16:18.516Z,9.80
2018-10-19T01:18:46.975Z,8.80
2018-10-19T01:21:15.550Z,9.10
2018-10-19T01:23:43.969Z,9.00
2018-10-19T01:26:12.446Z,8.80
2018-10-19T01:28:40.928Z,9.20
2018-10-19T01:31:09.413Z,9.37
2018-10-19T01:33:37.891Z,8.77
2018-10-19T01:36:07.340Z,9.17
2018-10-19T01:38:36.161Z,9.53
2018-10-19T01:41:04.655Z,8.97
2018-10-19T01:43:33.139Z,9.67
2018-10-19T01:46:01.624Z,8.97
2018-10-19T01:48:30.104Z,8.73
2018-10-19T01:50:59.155Z,9.37
2018-10-19T01:53:27.927Z,9.17
2018-10-19T01:55:56.414Z,9.60
2018-10-19T01:58:24.895Z,9.60
2018-10-19T02:00:53.370Z,8.97
2018-10-19T02:03:21.883Z,9.43
2018-10-19T02:05:50.377Z,9.27
2018-10-19T02:08:18.912Z,9.10
2018-10-19T02:10:47.379Z,8.60
2018-10-19T02:13:15.842Z,8.70
2018-10-19T02:15:44.316Z,9.60
2018-10-19T02:18:12.801Z,9.27
2018-10-19T02:20:41.295Z,8.90
2018-10-19T02:23:09.793Z,8.27
2018-10-19T02:25:38.276Z,9.23
2018-10-19T02:28:06.766Z,8.80
2018-10-19T02:30:35.294Z,9.40
2018-10-19T02:33:03.797Z,8.60
2018-10-19T02:35:32.264Z,9.93
2018-10-19T02:38:00.764Z,8.87
2018-10-19T02:40:29.311Z,9.13
2018-10-19T02:42:57.791Z,8.83
2018-10-19T02:45:26.267Z,9.57
2018-10-19T02:47:54.747Z,8.67
2018-10-19T02:50:23.240Z,9.10
2018-10-19T02:52:51.711Z,8.43
2018-10-19T02:55:20.206Z,8.97
2018-10-19T02:57:48.679Z,9.07
2018-10-19T03:00:17.157Z,9.20
2018-10-19T03:02:45.634Z,10.03
2018-10-19T03:05:14.188Z,8.93
2018-10-19T03:07:42.682Z,9.30
2018-10-19T03:10:11.155Z,9.47
2018-10-19T03:12:39.630Z,9.53
2018-10-19T03:15:08.705Z,9.00
2018-10-19T03:17:37.240Z,8.93
2018-10-19T03:20:07.311Z,8.90
2018-10-19T03:22:36.003Z,9.10
2018-10-19T03:25:04.479Z,9.37
2018-10-19T03:27:32.951Z,9.07
2018-10-19T03:30:01.440Z,9.40
2018-10-19T03:32:29.924Z,9.60
2018-10-19T03:34:58.470Z,9.17
2018-10-19T03:37:26.942Z,9.53
2018-10-19T03:39:55.405Z,8.90
2018-10-19T03:42:23.884Z,9.20
2018-10-19T03:44:52.382Z,9.57
2018-10-19T03:47:20.856Z,9.83
2018-10-19T03:49:49.343Z,9.53
2018-10-19T03:52:17.847Z,9.40
2018-10-19T03:54:46.334Z,9.80
2018-10-19T03:57:14.901Z,9.50
2018-10-19T03:59:43.311Z,9.63
2018-10-19T04:02:11.799Z,9.60
2018-10-19T04:04:40.313Z,9.40
2018-10-19T04:07:08.782Z,9.40
2018-10-19T04:09:37.267Z,9.43
2018-10-19T04:12:06.198Z,9.63
2018-10-19T04:14:34.679Z,9.90
2018-10-19T04:17:03.192Z,8.67
2018-10-19T04:19:31.671Z,9.53
2018-10-19T04:22:00.144Z,9.50
2018-10-19T04:24:28.631Z,9.60
2018-10-19T04:26:57.106Z,9.70
2018-10-19T04:29:25.593Z,9.47
2018-10-19T04:31:54.101Z,9.07
2018-10-19T04:34:22.580Z,8.93
2018-10-19T04:36:51.073Z,9.20
2018-10-19T04:39:19.551Z,9.50
2018-10-19T04:41:48.243Z,8.90
2018-10-19T04:44:16.637Z,9.43
2018-10-19T04:46:45.111Z,8.97
2018-10-19T04:49:13.597Z,8.87
2018-10-19T04:51:42.070Z,9.60
2018-10-19T04:54:10.543Z,9.87
2018-10-19T04:56:39.064Z,9.60
2018-10-19T04:59:07.633Z,9.50
2018-10-19T05:01:36.104Z,9.73
2018-10-19T05:04:04.600Z,9.07
2018-10-19T05:06:33.123Z,9.60
2018-10-19T05:09:01.648Z,9.10
2018-10-19T05:11:30.130Z,10.03
2018-10-19T05:13:58.639Z,8.77
2018-10-19T05:16:27.106Z,9.20
2018-10-19T05:18:55.595Z,9.43
2018-10-19T05:21:24.070Z,9.60
2018-10-19T05:23:52.568Z,9.20
2018-10-19T05:26:21.095Z,9.03
2018-10-19T05:28:49.586Z,9.80
2018-10-19T05:31:18.120Z,9.17
2018-10-19T05:33:46.597Z,9.37
2018-10-19T05:36:15.144Z,10.07
2018-10-19T05:38:43.634Z,9.60
2018-10-19T05:41:12.155Z,9.37
2018-10-19T05:43:40.638Z,9.20
2018-10-19T05:46:09.137Z,10.07
2018-10-19T05:48:37.726Z,9.90
2018-10-19T05:51:06.199Z,9.90
2018-10-19T05:53:34.712Z,9.83
2018-10-19T05:56:03.249Z,9.97
2018-10-19T05:58:31.941Z,9.23
2018-10-19T06:01:00.416Z,9.70
2018-10-19T06:03:28.895Z,9.60
2018-10-19T06:05:57.370Z,9.63
2018-10-19T06:08:25.843Z,9.17
2018-10-19T06:10:54.374Z,9.40
2018-10-19T06:13:22.831Z,10.07
2018-10-19T06:15:51.326Z,10.07
2018-10-19T06:18:19.816Z,9.60
2018-10-19T06:20:48.295Z,9.53
2018-10-19T06:23:16.834Z,9.90
2018-10-19T06:25:45.283Z,9.77
2018-10-19T06:28:13.767Z,9.87
2018-10-19T06:30:42.251Z,9.97
2018-10-19T06:33:10.743Z,9.93
2018-10-19T06:35:39.234Z,10.13
2018-10-19T06:38:07.958Z,10.10
2018-10-19T06:40:36.512Z,10.30
2018-10-19T06:43:04.934Z,9.60
2018-10-19T06:45:33.431Z,9.77
2018-10-19T06:48:01.928Z,10.23
2018-10-19T06:50:30.418Z,10.17
2018-10-19T06:52:58.899Z,9.33
2018-10-19T06:55:27.400Z,10.00
2018-10-19T06:57:55.885Z,10.47
2018-10-19T07:00:24.363Z,9.83
2018-10-19T07:02:52.868Z,10.10
2018-10-19T07:05:21.347Z,10.07
2018-10-19T07:07:49.880Z,10.23
2018-10-19T07:10:18.323Z,9.97
2018-10-19T07:12:46.840Z,10.87
2018-10-19T07:15:15.308Z,11.10
2018-10-19T07:17:43.814Z,9.57
2018-10-19T07:20:12.439Z,10.20
2018-10-19T07:22:40.929Z,11.10
2018-10-19T07:25:09.732Z,10.90
2018-10-19T07:27:38.216Z,10.07
2018-10-19T07:30:07.074Z,10.60
2018-10-19T07:32:35.568Z,10.00
2018-10-19T07:35:04.077Z,10.77
2018-10-19T07:37:32.573Z,10.77
2018-10-19T07:40:01.041Z,11.07
2018-10-19T07:42:29.520Z,10.90
2018-10-19T07:44:58.020Z,11.13
2018-10-19T07:47:26.514Z,11.03
2018-10-19T07:49:55.032Z,11.17
2018-10-19T07:52:23.513Z,11.13
2018-10-19T07:54:52.189Z,11.10
2018-10-19T07:57:20.659Z,9.90
2018-10-19T07:59:49.129Z,10.57
2018-10-19T08:02:17.715Z,10.37
2018-10-19T08:04:46.199Z,11.50
2018-10-19T08:07:14.691Z,10.47
2018-10-19T08:09:43.154Z,11.27
2018-10-19T08:12:11.651Z,11.13
2018-10-19T08:14:40.123Z,11.20
2018-10-19T08:17:08.670Z,11.20
2018-10-19T08:19:37.119Z,12.17
2018-10-19T08:22:05.642Z,11.53
2018-10-19T08:24:34.128Z,10.87
2018-10-19T08:27:02.611Z,12.23
2018-10-19T08:29:31.074Z,11.10
2018-10-19T08:31:59.606Z,10.80
2018-10-19T08:34:28.068Z,10.53
2018-10-19T08:36:56.624Z,11.07
2018-10-19T08:39:25.119Z,11.13
2018-10-19T08:41:53.596Z,11.03
2018-10-19T08:44:22.706Z,11.77
2018-10-19T08:46:51.219Z,11.97
2018-10-19T08:49:19.678Z,12.40
2018-10-19T08:51:48.155Z,11.77
2018-10-19T08:54:16.630Z,11.00
2018-10-19T08:56:45.110Z,11.30
2018-10-19T08:59:13.669Z,12.53
2018-10-19T09:01:42.116Z,11.93
2018-10-19T09:04:10.644Z,12.20
2018-10-19T09:06:39.095Z,11.97
2018-10-19T09:09:09.971Z,11.50
2018-10-19T09:11:38.805Z,11.57
2018-10-19T09:14:18.539Z,11.67
2018-10-19T09:16:47.444Z,12.17
2018-10-19T09:19:15.953Z,12.30
2018-10-19T09:21:44.467Z,12.63
2018-10-19T09:24:13.279Z,12.03
2018-10-19T09:26:42.875Z,12.43
2018-10-19T09:29:11.742Z,12.47
2018-10-19T09:31:40.175Z,12.37
2018-10-19T09:34:08.702Z,12.50
2018-10-19T09:36:37.294Z,12.37
2018-10-19T09:39:08.887Z,13.37
2018-10-19T09:41:37.307Z,12.90
2018-10-19T09:44:05.808Z,13.17
2018-10-19T09:46:34.566Z,12.23
2018-10-19T09:49:03.088Z,12.50
2018-10-19T09:51:31.533Z,13.57
2018-10-19T09:54:00.009Z,14.83
2018-10-19T09:56:28.503Z,13.23
2018-10-19T09:58:57.851Z,13.37
2018-10-19T10:01:28.670Z,14.17
2018-10-19T10:03:57.162Z,12.17
2018-10-19T10:06:25.630Z,13.37
2018-10-19T10:08:54.122Z,12.03
2018-10-19T10:11:22.603Z,12.83
2018-10-19T10:13:51.396Z,13.47
2018-10-19T10:16:20.191Z,13.23
2018-10-19T10:18:48.670Z,13.33
2018-10-19T10:21:17.295Z,12.80
2018-10-19T10:23:45.763Z,12.50
2018-10-19T10:26:14.731Z,13.10
2018-10-19T10:28:43.276Z,13.13
2018-10-19T10:31:11.764Z,12.67
2018-10-19T10:33:40.249Z,12.30
2018-10-19T10:36:08.736Z,13.00
2018-10-19T10:38:37.216Z,13.30
2018-10-19T10:41:05.798Z,13.93
2018-10-19T10:43:34.276Z,13.37
2018-10-19T10:46:02.808Z,12.63
2018-10-19T10:48:31.279Z,13.07
2018-10-19T10:50:59.769Z,13.60
2018-10-19T10:53:28.256Z,13.63
2018-10-19T10:55:56.733Z,13.30
2018-10-19T10:58:25.214Z,12.53
2018-10-19T11:00:53.750Z,12.97
2018-10-19T11:03:22.216Z,13.43
2018-10-19T11:05:50.683Z,12.67
2018-10-19T11:08:19.155Z,12.80
2018-10-19T11:10:47.728Z,12.60
2018-10-19T11:13:16.204Z,12.93
2018-10-19T11:15:44.682Z,12.00
2018-10-19T11:18:13.167Z,12.57
2018-10-19T11:20:41.651Z,12.70
2018-10-19T11:23:10.124Z,13.37
2018-10-19T11:25:38.613Z,13.07
2018-10-19T11:28:07.174Z,12.70
2018-10-19T11:30:35.622Z,13.03
2018-10-19T11:33:04.106Z,12.27
2018-10-19T11:35:32.612Z,12.57
2018-10-19T11:38:01.180Z,12.87
2018-10-19T11:40:34.003Z,13.47
2018-10-19T11:43:02.537Z,11.97
2018-10-19T11:45:32.264Z,13.13
2018-10-19T11:48:00.788Z,13.17
2018-10-19T11:50:29.428Z,12.60
2018-10-19T11:52:57.927Z,12.00
2018-10-19T11:55:26.407Z,13.03
2018-10-19T11:57:54.916Z,12.03
2018-10-19T12:00:23.462Z,12.27
2018-10-19T12:02:51.942Z,12.37
2018-10-19T12:05:20.478Z,12.13
2018-10-19T12:07:48.949Z,12.40
2018-10-19T12:10:17.470Z,13.10
2018-10-19T12:12:45.924Z,12.60
2018-10-19T12:15:15.699Z,11.97
2018-10-19T12:17:44.771Z,12.60
2018-10-19T12:20:15.603Z,12.60
2018-10-19T12:22:44.124Z,12.30
2018-10-19T12:25:13.604Z,12.53
2018-10-19T12:27:42.386Z,11.77
2018-10-19T12:30:11.571Z,11.77
2018-10-19T12:32:40.367Z,12.10
2018-10-19T12:35:10.922Z,12.73
2018-10-19T12:37:39.431Z,12.17
2018-10-19T12:40:08.793Z,11.97
2018-10-19T12:42:37.775Z,12.03
2018-10-19T12:45:11.283Z,12.30
2018-10-19T12:47:41.702Z,12.40
2018-10-19T12:50:10.187Z,12.60
2018-10-19T12:52:38.679Z,11.80
2018-10-19T12:55:08.647Z,12.03
2018-10-19T12:57:37.168Z,12.03
2018-10-19T13:00:06.776Z,12.10
2018-10-19T13:02:35.268Z,11.37
2018-10-19T13:05:03.738Z,12.03
2018-10-19T13:07:32.219Z,12.23
2018-10-19T13:10:00.790Z,12.03
2018-10-19T13:12:29.194Z,11.23
2018-10-19T13:14:57.714Z,11.47
2018-10-19T13:17:26.221Z,12.20
2018-10-19T13:19:54.721Z,11.60
2018-10-19T13:22:23.212Z,11.47
2018-10-19T13:24:51.697Z,11.43
2018-10-19T13:27:20.242Z,12.40
2018-10-19T13:29:48.727Z,11.60
2018-10-19T13:32:17.237Z,11.37
2018-10-19T13:34:45.716Z,11.60
2018-10-19T13:37:14.193Z,11.67
2018-10-19T13:39:42.668Z,11.37
2018-10-19T13:42:11.158Z,11.80
2018-10-19T13:44:39.984Z,11.53
2018-10-19T13:47:08.519Z,11.77
2018-10-19T13:49:36.971Z,11.43
2018-10-19T13:52:05.566Z,11.60
2018-10-19T13:54:34.054Z,11.93
2018-10-19T13:57:02.600Z,11.70
2018-10-19T13:59:31.045Z,11.83
2018-10-19T14:01:59.522Z,11.93
2018-10-19T14:04:27.993Z,12.07
2018-10-19T14:06:56.521Z,11.87
2018-10-19T14:09:24.987Z,11.03
2018-10-19T14:11:53.476Z,11.93
2018-10-19T14:14:21.957Z,11.83
2018-10-19T14:16:50.591Z,12.03
2018-10-19T14:19:19.191Z,11.97
2018-10-19T14:21:47.586Z,12.67
2018-10-19T14:24:16.063Z,12.37
2018-10-19T14:26:44.680Z,11.60
2018-10-19T14:29:13.149Z,11.30
2018-10-19T14:31:41.613Z,11.30
2018-10-19T14:34:10.096Z,11.60
2018-10-19T14:36:38.583Z,11.57
2018-10-19T14:39:07.379Z,12.13
2018-10-19T14:41:35.835Z,11.97
2018-10-19T14:44:04.338Z,11.30
2018-10-19T14:46:32.825Z,11.23
2018-10-19T14:49:01.338Z,12.07
2018-10-19T14:51:29.867Z,11.70
2018-10-19T14:53:58.370Z,11.70
2018-10-19T14:56:26.844Z,11.33
2018-10-19T14:58:55.343Z,11.90
2018-10-19T15:01:23.835Z,11.40
2018-10-19T15:03:52.816Z,11.47
2018-10-19T15:06:21.291Z,10.73
2018-10-19T15:08:49.776Z,11.77
2018-10-19T15:11:18.547Z,11.63
2018-10-19T15:13:46.785Z,11.20
2018-10-19T15:16:15.269Z,11.43
2018-10-19T15:18:43.750Z,12.13
2018-10-19T15:21:12.285Z,12.23
2018-10-19T15:23:40.732Z,10.97
2018-10-19T15:26:09.225Z,11.53
2018-10-19T15:28:37.765Z,12.13
2018-10-19T15:31:06.417Z,11.60
2018-10-19T15:33:34.896Z,11.50
2018-10-19T15:36:03.449Z,11.27
2018-10-19T15:38:31.891Z,12.30
2018-10-19T15:41:00.394Z,10.87
2018-10-19T15:43:28.899Z,11.73
2018-10-19T15:45:57.366Z,12.67
2018-10-19T15:48:25.843Z,12.40
2018-10-19T15:50:54.372Z,11.80
2018-10-19T15:53:22.843Z,11.00
2018-10-19T15:55:51.342Z,11.53
2018-10-19T15:58:19.836Z,11.23
2018-10-19T16:00:49.329Z,11.47
2018-10-19T16:03:17.811Z,11.67
2018-10-19T16:05:46.294Z,11.10
2018-10-19T16:08:14.786Z,11.37
2018-10-19T16:10:43.273Z,11.70
2018-10-19T16:13:11.765Z,11.57
2018-10-19T16:15:40.300Z,11.10
2018-10-19T16:18:08.826Z,11.40
2018-10-19T16:20:37.283Z,11.23
2018-10-19T16:23:06.150Z,11.93
2018-10-19T16:25:34.735Z,11.27
2018-10-19T16:28:03.262Z,11.40
2018-10-19T16:30:31.777Z,11.30
2018-10-19T16:33:00.300Z,11.37
2018-10-19T16:35:28.788Z,11.37
2018-10-19T16:37:57.267Z,11.90
2018-10-19T16:40:25.757Z,11.67
2018-10-19T16:42:54.256Z,11.60
2018-10-19T16:45:22.726Z,11.03
2018-10-19T16:47:51.216Z,11.47
2018-10-19T16:50:19.726Z,11.53
2018-10-19T16:52:48.239Z,11.50
2018-10-19T16:55:16.714Z,11.27
2018-10-19T16:57:45.188Z,11.40
2018-10-19T17:00:13.739Z,11.33
2018-10-19T17:02:42.179Z,11.97
2018-10-19T17:05:10.752Z,11.27
2018-10-19T17:07:39.175Z,11.50
2018-10-19T17:10:08.246Z,12.10
2018-10-19T17:12:36.764Z,12.37
2018-10-19T17:15:05.407Z,11.63
2018-10-19T17:17:33.954Z,11.43
2018-10-19T17:20:02.435Z,11.37
2018-10-19T17:22:30.924Z,10.63
2018-10-19T17:24:59.407Z,11.70
2018-10-19T17:27:27.882Z,11.27
2018-10-19T17:29:56.357Z,11.40
2018-10-19T17:32:24.847Z,11.17
2018-10-19T17:34:53.329Z,11.80
2018-10-19T17:37:21.834Z,10.80
2018-10-19T17:39:50.898Z,11.60
2018-10-19T17:42:19.412Z,12.10
2018-10-19T17:44:47.915Z,12.00
2018-10-19T17:47:16.427Z,12.20
2018-10-19T17:49:44.930Z,11.27
2018-10-19T17:52:13.406Z,10.93
2018-10-19T17:54:41.894Z,12.70
2018-10-19T17:57:10.486Z,11.73
2018-10-19T17:59:38.943Z,11.40
2018-10-19T18:02:07.424Z,12.37
2018-10-19T18:04:35.946Z,12.23
2018-10-19T18:07:04.407Z,11.93
2018-10-19T18:09:32.979Z,12.30
2018-10-19T18:12:01.419Z,11.53
2018-10-19T18:14:29.906Z,11.60
2018-10-19T18:16:58.453Z,11.97
2018-10-19T18:19:26.892Z,11.93
2018-10-19T18:21:55.523Z,12.37
2018-10-19T18:24:26.917Z,12.13
2018-10-19T18:26:55.432Z,12.10
2018-10-19T18:29:23.883Z,12.53
2018-10-19T18:31:52.395Z,12.17
2018-10-19T18:34:21.220Z,12.50
2018-10-19T18:36:49.691Z,11.77
2018-10-19T18:39:18.164Z,12.40
2018-10-19T18:41:46.631Z,12.27
2018-10-19T18:44:15.189Z,13.20
2018-10-19T18:46:43.611Z,12.73
2018-10-19T18:49:12.084Z,11.80
2018-10-19T18:51:40.571Z,12.40
2018-10-19T18:54:09.055Z,14.00
2018-10-19T18:56:37.532Z,13.80
2018-10-19T18:59:06.110Z,12.77
2018-10-19T19:01:34.518Z,12.60
2018-10-19T19:04:03.003Z,12.87
2018-10-19T19:06:31.458Z,13.00
2018-10-19T19:08:59.949Z,13.03
2018-10-19T19:11:28.426Z,13.50
2018-10-19T19:13:56.960Z,12.43
2018-10-19T19:16:30.619Z,12.90
2018-10-19T19:18:59.098Z,12.53
2018-10-19T19:21:27.597Z,13.10
2018-10-19T19:24:01.419Z,13.03
2018-10-19T19:26:29.899Z,13.23
2018-10-19T19:28:58.711Z,13.17
2018-10-19T19:31:27.171Z,12.90
2018-10-19T19:34:00.887Z,13.27
2018-10-19T19:36:29.376Z,14.13
2018-10-19T19:38:57.862Z,12.53
2018-10-19T19:41:31.666Z,13.93
2018-10-19T19:44:00.196Z,13.63
2018-10-19T19:46:28.738Z,14.03
2018-10-19T19:49:02.596Z,13.40
2018-10-19T19:51:31.054Z,12.87
2018-10-19T19:53:59.540Z,13.60
2018-10-19T19:56:28.014Z,13.10
2018-10-19T19:58:56.499Z,13.47
2018-10-19T20:01:24.992Z,13.57
2018-10-19T20:03:53.499Z,13.00
2018-10-19T20:06:22.088Z,12.20
2018-10-19T20:08:50.505Z,14.13
2018-10-19T20:11:18.971Z,13.80
2018-10-19T20:13:47.487Z,13.77
2018-10-19T20:16:15.966Z,13.40
2018-10-19T20:18:44.520Z,14.00
2018-10-19T20:21:13.035Z,14.17
2018-10-19T20:23:41.507Z,14.10
2018-10-19T20:26:10.128Z,14.10
2018-10-19T20:28:38.480Z,13.80
2018-10-19T20:31:06.963Z,13.90
2018-10-19T20:33:35.443Z,13.57
2018-10-19T20:36:03.921Z,13.07
2018-10-19T20:38:32.408Z,13.50
2018-10-19T20:41:01.002Z,14.43
2018-10-19T20:43:29.452Z,13.50
2018-10-19T20:45:57.933Z,14.17
2018-10-19T20:48:26.406Z,14.00
2018-10-19T20:50:54.883Z,14.27
2018-10-19T20:53:23.363Z,14.10
2018-10-19T20:55:51.890Z,14.13
2018-10-19T20:58:20.324Z,14.50
2018-10-19T21:00:48.888Z,14.00
2018-10-19T21:03:17.303Z,13.73
2018-10-19T21:05:45.796Z,14.97
2018-10-19T21:08:14.327Z,14.37
2018-10-19T21:10:42.976Z,13.87
2018-10-19T21:13:11.450Z,14.90
2018-10-19T21:15:39.940Z,14.47
2018-10-19T21:18:08.420Z,13.93
2018-10-19T21:20:36.929Z,14.97
2018-10-19T21:23:05.489Z,14.57
2018-10-19T21:25:33.932Z,13.77
2018-10-19T21:28:02.427Z,14.03
2018-10-19T21:30:30.912Z,14.73
2018-10-19T21:32:59.373Z,14.03
2018-10-19T21:35:27.852Z,14.30
2018-10-19T21:37:56.409Z,15.13
2018-10-19T21:40:24.849Z,14.30
2018-10-19T21:42:53.323Z,14.60
2018-10-19T21:45:21.805Z,15.53
2018-10-19T21:47:50.296Z,15.80
2018-10-19T21:50:22.012Z,15.87
2018-10-19T21:52:51.747Z,15.47
2018-10-19T21:55:20.266Z,15.77
2018-10-19T21:57:48.723Z,14.97
2018-10-19T22:00:17.292Z,14.87
2018-10-19T22:02:45.767Z,15.00
2018-10-19T22:05:14.290Z,13.87
2018-10-19T22:07:42.822Z,14.83
2018-10-19T22:10:11.240Z,15.03
2018-10-19T22:12:39.743Z,15.07
2018-10-19T22:15:08.811Z,15.13
2018-10-19T22:17:37.360Z,16.13
2018-10-19T22:20:05.967Z,16.77
2018-10-19T22:22:34.460Z,15.23
2018-10-19T22:25:03.181Z,15.83
2018-10-19T22:27:31.645Z,15.37
2018-10-19T22:30:00.141Z,16.13
2018-10-19T22:32:28.635Z,16.17
2018-10-19T22:34:57.136Z,15.83
2018-10-19T22:37:25.610Z,15.97
2018-10-19T22:39:54.103Z,16.57
2018-10-19T22:42:22.571Z,15.20
2018-10-19T22:44:51.420Z,15.93
2018-10-19T22:47:19.894Z,16.07
2018-10-19T22:49:48.381Z,15.97
2018-10-19T22:52:16.856Z,16.37
2018-10-19T22:54:45.322Z,16.27
2018-10-19T22:57:13.837Z,16.23
2018-10-19T22:59:42.323Z,17.00
2018-10-19T23:02:10.804Z,16.23
2018-10-19T23:04:39.278Z,16.03
2018-10-19T23:07:07.803Z,15.90
2018-10-19T23:09:36.268Z,17.13
2018-10-19T23:12:04.755Z,16.87
2018-10-19T23:14:33.247Z,15.57
2018-10-19T23:17:01.781Z,16.57
2018-10-19T23:19:30.268Z,17.30
2018-10-19T23:21:58.726Z,15.37
2018-10-19T23:24:27.219Z,16.27
2018-10-19T23:26:55.723Z,16.97
2018-10-19T23:29:24.202Z,16.50
2018-10-19T23:31:52.689Z,16.13
2018-10-19T23:34:21.222Z,17.00
2018-10-19T23:36:49.713Z,16.37
2018-10-19T23:39:18.200Z,16.60
2018-10-19T23:41:46.703Z,16.13
2018-10-19T23:44:15.200Z,17.50
2018-10-19T23:46:43.703Z,17.53
2018-10-19T23:49:12.224Z,18.47
2018-10-19T23:51:40.696Z,16.10
2018-10-19T23:54:09.166Z,16.00
2018-10-19T23:56:37.647Z,16.83
2018-10-19T23:59:06.278Z,18.33
